Wetterdaten: Woche 17.08.15 - 23.08.15 (KW34)
Datum Zeit Temp. A. Feuchte A. Luftdruck Regen Wind Richtung Taupunkt Windchill Windben
17.08.2015 00:00 20,0 C 78 % 1006,5 hPa 0,0 l/m 8,5 km/h N 15,9 C 19,0 C 27,3 km/h
17.08.2015 01:00 19,2 C 80 % 1005,9 hPa 0,8 l/m 7,4 km/h N 15,6 C 18,4 C 25,8 km/h
17.08.2015 02:00 18,8 C 80 % 1006,6 hPa 3,9 l/m 4,1 km/h N 15,3 C 18,8 C 14,1 km/h
17.08.2015 03:00 18,2 C 80 % 1006,1 hPa 7,8 l/m 3,6 km/h N 14,6 C 18,2 C 11,3 km/h
17.08.2015 04:00 18,1 C 80 % 1005,1 hPa 0,3 l/m 7,4 km/h N 14,5 C 17,6 C 20,9 km/h
17.08.2015 05:00 18,3 C 80 % 1005,4 hPa 1,3 l/m 6,8 km/h N 14,7 C 18,0 C 24,1 km/h
17.08.2015 06:00 18,1 C 80 % 1006,0 hPa 3,1 l/m 0,9 km/h N 14,6 C 18,1 C 7,7 km/h
17.08.2015 07:00 17,8 C 80 % 1006,2 hPa 0,3 l/m 3,5 km/h N 14,3 C 17,7 C 11,7 km/h
17.08.2015 08:00 17,8 C 80 % 1006,4 hPa 0,3 l/m 1,5 km/h N 14,3 C 17,8 C 11,3 km/h
17.08.2015 09:00 18,2 C 81 % 1006,8 hPa 0,0 l/m 2,0 km/h N 14,8 C 18,2 C 14,1 km/h
17.08.2015 10:00 18,8 C 81 % 1007,1 hPa 0,0 l/m 3,2 km/h N 15,4 C 18,8 C 18,5 km/h
17.08.2015 11:00 19,4 C 79 % 1007,3 hPa 0,0 l/m 4,4 km/h N 15,6 C 19,4 C 24,5 km/h
17.08.2015 12:00 19,7 C 77 % 1007,3 hPa 0,0 l/m 8,6 km/h N 15,6 C 18,9 C 31,0 km/h
17.08.2015 13:00 20,0 C 75 % 1007,5 hPa 0,0 l/m 9,6 km/h N 15,3 C 18,8 C 28,6 km/h
17.08.2015 14:00 20,1 C 73 % 1007,7 hPa 0,0 l/m 7,3 km/h N 14,9 C 19,6 C 27,8 km/h
17.08.2015 15:00 20,5 C 71 % 1007,5 hPa 0,0 l/m 11,2 km/h N 14,9 C 18,8 C 31,4 km/h
17.08.2015 16:00 20,8 C 67 % 1007,5 hPa 0,0 l/m 11,1 km/h N 14,5 C 19,2 C 30,6 km/h
17.08.2015 17:00 20,3 C 68 % 1007,8 hPa 0,0 l/m 10,0 km/h N 14,2 C 19,0 C 28,1 km/h
17.08.2015 18:00 19,8 C 70 % 1007,8 hPa 0,0 l/m 9,8 km/h N 14,2 C 18,5 C 29,0 km/h
17.08.2015 19:00 19,5 C 70 % 1007,9 hPa 0,0 l/m 11,0 km/h N 13,9 C 17,7 C 32,6 km/h
17.08.2015 20:00 19,1 C 72 % 1008,5 hPa 0,0 l/m 11,0 km/h N 13,8 C 17,3 C 30,2 km/h
17.08.2015 21:00 18,5 C 75 % 1008,8 hPa 0,3 l/m 13,3 km/h N 13,9 C 15,9 C 32,6 km/h
17.08.2015 22:00 17,6 C 79 % 1008,7 hPa 0,3 l/m 9,6 km/h N 13,9 C 16,2 C 31,0 km/h
17.08.2015 23:00 17,9 C 77 % 1008,8 hPa 0,0 l/m 10,0 km/h N 13,8 C 16,3 C 27,4 km/h
18.08.2015 00:00 17,9 C 77 % 1008,9 hPa 0,0 l/m 9,8 km/h N 13,8 C 16,5 C 29,8 km/h
18.08.2015 01:00 18,0 C 77 % 1009,3 hPa 0,0 l/m 9,5 km/h N 13,8 C 16,6 C 25,7 km/h
18.08.2015 02:00 17,3 C 80 % 1009,4 hPa 1,0 l/m 11,4 km/h N 13,7 C 15,1 C 28,6 km/h
18.08.2015 03:00 16,8 C 81 % 1009,3 hPa 0,8 l/m 9,4 km/h N 13,4 C 15,4 C 28,6 km/h
18.08.2015 04:00 16,5 C 81 % 1009,8 hPa 0,8 l/m 6,9 km/h N 13,3 C 16,2 C 22,9 km/h
18.08.2015 05:00 16,5 C 81 % 1010,1 hPa 0,0 l/m 5,2 km/h N 13,1 C 16,5 C 16,9 km/h
18.08.2015 06:00 16,3 C 81 % 1010,6 hPa 0,5 l/m 7,0 km/h N 13,0 C 15,8 C 24,5 km/h
18.08.2015 07:00 16,4 C 80 % 1010,9 hPa 0,0 l/m 7,4 km/h N 12,8 C 15,7 C 22,5 km/h
18.08.2015 08:00 16,3 C 80 % 1011,4 hPa 0,8 l/m 6,3 km/h N 12,8 C 16,2 C 21,3 km/h
18.08.2015 09:00 16,7 C 79 % 1011,6 hPa 0,0 l/m 7,6 km/h N 13,0 C 15,9 C 22,5 km/h
18.08.2015 10:00 17,2 C 78 % 1012,1 hPa 0,3 l/m 6,1 km/h N 13,3 C 17,1 C 20,5 km/h
18.08.2015 11:00 17,8 C 77 % 1012,3 hPa 0,0 l/m 6,4 km/h N 13,8 C 17,6 C 21,7 km/h
18.08.2015 12:00 19,0 C 72 % 1012,5 hPa 0,0 l/m 8,5 km/h N 13,7 C 18,1 C 23,3 km/h
18.08.2015 13:00 19,4 C 70 % 1012,9 hPa 0,0 l/m 7,5 km/h N 13,8 C 18,9 C 20,9 km/h
18.08.2015 14:00 19,8 C 69 % 1013,1 hPa 0,0 l/m 6,1 km/h N 14,0 C 19,6 C 18,5 km/h
18.08.2015 15:00 19,9 C 68 % 1013,3 hPa 0,0 l/m 6,1 km/h N 13,8 C 19,9 C 16,9 km/h
18.08.2015 16:00 20,2 C 66 % 1013,3 hPa 0,0 l/m 5,7 km/h N 13,7 C 20,2 C 15,7 km/h
18.08.2015 17:00 20,5 C 65 % 1013,2 hPa 0,0 l/m 6,8 km/h N 13,7 C 20,3 C 16,9 km/h
18.08.2015 18:00 20,7 C 64 % 1013,3 hPa 0,0 l/m 4,6 km/h N 13,6 C 20,7 C 13,7 km/h
18.08.2015 19:00 20,0 C 68 % 1013,6 hPa 0,0 l/m 1,9 km/h N 13,9 C 20,0 C 8,4 km/h
18.08.2015 20:00 18,7 C 74 % 1014,2 hPa 0,0 l/m 1,1 km/h N 14,0 C 18,7 C 7,2 km/h
18.08.2015 21:00 17,4 C 78 % 1014,4 hPa 0,0 l/m 0,1 km/h N 13,4 C 17,4 C 2,0 km/h
18.08.2015 22:00 16,1 C 80 % 1014,8 hPa 0,0 l/m 0,0 km/h N 12,6 C 16,1 C 0,0 km/h
18.08.2015 23:00 14,9 C 81 % 1014,9 hPa 0,0 l/m 0,0 km/h N 11,7 C 14,9 C 0,0 km/h
19.08.2015 00:00 14,4 C 81 % 1015,2 hPa 0,0 l/m 0,0 km/h N 11,2 C 14,4 C 0,0 km/h
19.08.2015 01:00 14,4 C 81 % 1015,1 hPa 0,0 l/m 0,4 km/h N 11,2 C 14,4 C 3,2 km/h
19.08.2015 02:00 15,3 C 81 % 1014,9 hPa 0,0 l/m 1,7 km/h N 12,1 C 15,3 C 6,8 km/h
19.08.2015 03:00 15,3 C 81 % 1015,0 hPa 0,0 l/m 0,9 km/h N 12,0 C 15,3 C 5,2 km/h
19.08.2015 04:00 14,9 C 82 % 1014,9 hPa 0,0 l/m 0,3 km/h N 11,7 C 14,9 C 4,4 km/h
19.08.2015 05:00 14,0 C 82 % 1014,7 hPa 0,0 l/m 0,4 km/h N 10,9 C 14,0 C 2,8 km/h
19.08.2015 06:00 13,6 C 82 % 1014,8 hPa 0,0 l/m 1,0 km/h N 10,5 C 13,6 C 2,8 km/h
19.08.2015 07:00 15,5 C 81 % 1015,0 hPa 0,0 l/m 5,7 km/h N 12,2 C 15,3 C 18,1 km/h
19.08.2015 08:00 16,4 C 79 % 1015,3 hPa 0,0 l/m 6,7 km/h N 12,8 C 16,2 C 20,1 km/h
19.08.2015 09:00 17,6 C 77 % 1015,2 hPa 0,0 l/m 7,1 km/h N 13,4 C 17,3 C 18,1 km/h
19.08.2015 10:00 18,3 C 75 % 1015,3 hPa 0,0 l/m 7,2 km/h N 13,8 C 17,8 C 17,3 km/h
19.08.2015 11:00 18,9 C 75 % 1015,3 hPa 0,0 l/m 8,1 km/h N 14,3 C 18,1 C 21,7 km/h
19.08.2015 12:00 18,9 C 75 % 1015,1 hPa 0,0 l/m 8,3 km/h N 14,4 C 18,1 C 19,3 km/h
19.08.2015 13:00 18,6 C 77 % 1015,5 hPa 0,0 l/m 6,8 km/h N 14,4 C 18,1 C 18,5 km/h
19.08.2015 14:00 18,4 C 78 % 1015,6 hPa 0,0 l/m 7,3 km/h N 14,5 C 18,0 C 18,5 km/h
19.08.2015 15:00 18,3 C 79 % 1015,7 hPa 0,0 l/m 7,4 km/h N 14,5 C 17,8 C 18,5 km/h
19.08.2015 16:00 18,3 C 79 % 1015,4 hPa 0,0 l/m 6,6 km/h N 14,5 C 17,9 C 18,1 km/h
19.08.2015 17:00 18,3 C 79 % 1015,6 hPa 0,0 l/m 7,7 km/h N 14,5 C 17,7 C 18,5 km/h
19.08.2015 18:00 18,0 C 80 % 1015,6 hPa 0,0 l/m 5,7 km/h N 14,3 C 17,8 C 16,5 km/h
19.08.2015 19:00 17,8 C 80 % 1015,9 hPa 0,0 l/m 5,5 km/h N 14,3 C 17,8 C 16,1 km/h
19.08.2015 20:00 17,7 C 79 % 1016,4 hPa 0,0 l/m 5,3 km/h N 14,0 C 17,7 C 15,3 km/h
19.08.2015 21:00 17,5 C 80 % 1016,6 hPa 0,0 l/m 3,7 km/h N 14,0 C 17,5 C 13,7 km/h
19.08.2015 22:00 16,9 C 81 % 1016,9 hPa 0,0 l/m 6,3 km/h N 13,6 C 16,6 C 16,5 km/h
19.08.2015 23:00 16,0 C 81 % 1017,3 hPa 2,6 l/m 5,4 km/h N 12,7 C 16,0 C 16,9 km/h
20.08.2015 00:00 15,7 C 80 % 1017,4 hPa 2,9 l/m 3,3 km/h N 12,2 C 15,7 C 11,3 km/h
20.08.2015 01:00 15,6 C 79 % 1017,5 hPa 0,0 l/m 3,0 km/h N 12,0 C 15,6 C 10,5 km/h
20.08.2015 02:00 15,6 C 79 % 1017,6 hPa 0,0 l/m 3,8 km/h N 11,9 C 15,6 C 12,5 km/h
20.08.2015 03:00 15,3 C 79 % 1017,7 hPa 2,1 l/m 4,9 km/h N 11,7 C 15,3 C 14,1 km/h
20.08.2015 04:00 15,2 C 79 % 1017,9 hPa 2,1 l/m 1,6 km/h N 11,6 C 15,2 C 10,1 km/h
20.08.2015 05:00 14,9 C 79 % 1018,3 hPa 2,1 l/m 2,4 km/h N 11,2 C 14,9 C 10,5 km/h
20.08.2015 06:00 14,8 C 79 % 1018,9 hPa 1,0 l/m 3,2 km/h N 11,1 C 14,8 C 10,5 km/h
20.08.2015 07:00 14,6 C 79 % 1019,4 hPa 3,1 l/m 2,3 km/h N 11,0 C 14,6 C 10,1 km/h
20.08.2015 08:00 14,6 C 79 % 1019,8 hPa 0,0 l/m 2,6 km/h N 10,9 C 14,6 C 9,7 km/h
20.08.2015 09:00 14,5 C 79 % 1020,5 hPa 0,3 l/m 2,2 km/h N 10,9 C 14,5 C 12,1 km/h
20.08.2015 10:00 14,4 C 80 % 1021,2 hPa 0,0 l/m 1,4 km/h N 11,0 C 14,4 C 7,2 km/h
20.08.2015 11:00 14,3 C 81 % 1021,5 hPa 0,0 l/m 2,2 km/h N 11,1 C 14,3 C 10,9 km/h
20.08.2015 12:00 14,4 C 81 % 1021,9 hPa 0,0 l/m 3,2 km/h N 11,2 C 14,4 C 12,1 km/h
20.08.2015 13:00 15,1 C 81 % 1021,9 hPa 0,0 l/m 1,1 km/h N 11,8 C 15,1 C 7,6 km/h
20.08.2015 14:00 16,5 C 81 % 1021,7 hPa 0,0 l/m 1,8 km/h N 13,2 C 16,5 C 9,3 km/h
20.08.2015 15:00 17,8 C 78 % 1021,8 hPa 0,0 l/m 2,7 km/h N 13,9 C 17,8 C 14,1 km/h
20.08.2015 16:00 18,6 C 74 % 1021,6 hPa 0,0 l/m 6,2 km/h N 13,8 C 18,4 C 18,5 km/h
20.08.2015 17:00 18,9 C 72 % 1021,6 hPa 0,0 l/m 4,1 km/h N 13,8 C 18,9 C 16,5 km/h
20.08.2015 18:00 18,7 C 72 % 1021,5 hPa 0,0 l/m 0,8 km/h N 13,6 C 18,7 C 7,7 km/h
20.08.2015 19:00 18,0 C 71 % 1021,6 hPa 0,0 l/m 0,5 km/h N 12,7 C 18,0 C 6,4 km/h
20.08.2015 20:00 17,7 C 72 % 1021,9 hPa 0,0 l/m 0,3 km/h N 12,5 C 17,7 C 3,6 km/h
20.08.2015 21:00 17,1 C 75 % 1022,4 hPa 0,0 l/m 0,1 km/h N 12,6 C 17,1 C 2,4 km/h
20.08.2015 22:00 16,7 C 76 % 1022,5 hPa 0,0 l/m 0,3 km/h N 12,5 C 16,7 C 6,4 km/h
20.08.2015 23:00 16,7 C 78 % 1022,4 hPa 0,0 l/m 0,1 km/h N 12,8 C 16,7 C 2,8 km/h
21.08.2015 00:00 16,8 C 78 % 1022,4 hPa 0,0 l/m 0,1 km/h N 13,0 C 16,8 C 2,8 km/h
21.08.2015 01:00 16,9 C 78 % 1022,2 hPa 0,0 l/m 0,5 km/h N 12,9 C 16,9 C 5,2 km/h
21.08.2015 02:00 16,6 C 77 % 1022,1 hPa 0,0 l/m 0,2 km/h N 12,6 C 16,6 C 2,8 km/h
21.08.2015 03:00 16,4 C 77 % 1022,2 hPa 0,0 l/m 0,6 km/h N 12,4 C 16,4 C 5,2 km/h
21.08.2015 04:00 16,8 C 77 % 1022,2 hPa 0,0 l/m 0,8 km/h N 12,7 C 16,8 C 5,6 km/h
21.08.2015 05:00 16,8 C 78 % 1022,3 hPa 0,0 l/m 0,3 km/h N 12,9 C 16,8 C 3,6 km/h
21.08.2015 06:00 16,8 C 78 % 1022,6 hPa 0,0 l/m 0,3 km/h N 13,0 C 16,8 C 4,0 km/h
21.08.2015 07:00 17,0 C 78 % 1022,8 hPa 0,0 l/m 0,4 km/h N 13,1 C 17,0 C 5,2 km/h
21.08.2015 08:00 17,4 C 77 % 1023,1 hPa 0,0 l/m 1,3 km/h N 13,4 C 17,4 C 8,1 km/h
21.08.2015 09:00 18,4 C 74 % 1023,1 hPa 0,0 l/m 2,9 km/h N 13,7 C 18,4 C 10,9 km/h
21.08.2015 10:00 19,6 C 71 % 1023,0 hPa 0,0 l/m 6,9 km/h N 14,2 C 19,4 C 17,7 km/h
21.08.2015 11:00 21,0 C 65 % 1022,7 hPa 0,0 l/m 5,4 km/h N 14,2 C 20,9 C 16,9 km/h
21.08.2015 12:00 21,5 C 61 % 1022,4 hPa 0,0 l/m 6,2 km/h N 13,7 C 21,3 C 19,7 km/h
21.08.2015 13:00 22,2 C 56 % 1022,2 hPa 0,0 l/m 4,8 km/h N 13,0 C 22,2 C 16,1 km/h
21.08.2015 14:00 23,4 C 48 % 1021,8 hPa 0,0 l/m 4,0 km/h N 11,6 C 23,4 C 13,7 km/h
21.08.2015 15:00 23,4 C 46 % 1021,6 hPa 0,0 l/m 5,3 km/h N 11,2 C 23,4 C 16,1 km/h
21.08.2015 16:00 23,3 C 48 % 1021,3 hPa 0,0 l/m 5,0 km/h N 11,6 C 23,3 C 15,3 km/h
21.08.2015 17:00 22,9 C 49 % 1021,0 hPa 0,0 l/m 4,3 km/h N 11,5 C 22,9 C 14,5 km/h
21.08.2015 18:00 22,4 C 56 % 1020,9 hPa 0,0 l/m 2,8 km/h N 13,1 C 22,4 C 11,3 km/h
21.08.2015 19:00 21,5 C 62 % 1021,2 hPa 0,5 l/m 2,2 km/h N 13,8 C 21,5 C 10,1 km/h
21.08.2015 20:00 18,1 C 77 % 1021,7 hPa 9,9 l/m 0,4 km/h N 13,9 C 18,1 C 4,0 km/h
21.08.2015 21:00 16,3 C 80 % 1021,8 hPa 0,3 l/m 0,0 km/h N 12,9 C 16,3 C 0,8 km/h
21.08.2015 22:00 15,1 C 81 % 1021,6 hPa 0,0 l/m 0,0 km/h N 11,9 C 15,1 C 1,2 km/h
21.08.2015 23:00 14,5 C 81 % 1021,5 hPa 0,0 l/m 0,1 km/h N 11,3 C 14,5 C 2,4 km/h
22.08.2015 00:00 14,3 C 81 % 1021,2 hPa 0,0 l/m 0,2 km/h N 11,1 C 14,3 C 2,8 km/h
22.08.2015 01:00 14,4 C 81 % 1021,0 hPa 0,0 l/m 0,1 km/h N 11,2 C 14,4 C 2,4 km/h
22.08.2015 02:00 14,1 C 82 % 1020,5 hPa 0,0 l/m 0,0 km/h N 11,1 C 14,1 C 0,0 km/h
22.08.2015 03:00 14,2 C 82 % 1020,0 hPa 0,0 l/m 0,0 km/h N 11,2 C 14,2 C 0,4 km/h
22.08.2015 04:00 14,2 C 82 % 1019,7 hPa 0,0 l/m 0,0 km/h N 11,1 C 14,2 C 0,4 km/h
22.08.2015 05:00 13,7 C 82 % 1020,0 hPa 0,0 l/m 0,0 km/h N 10,7 C 13,7 C 0,0 km/h
22.08.2015 06:00 13,3 C 82 % 1020,2 hPa 0,0 l/m 1,5 km/h N 10,3 C 13,3 C 5,6 km/h
22.08.2015 07:00 15,6 C 77 % 1020,3 hPa 0,0 l/m 3,2 km/h N 11,6 C 15,6 C 12,5 km/h
22.08.2015 08:00 17,3 C 70 % 1020,3 hPa 0,0 l/m 3,4 km/h N 11,7 C 17,3 C 10,1 km/h
22.08.2015 09:00 18,8 C 65 % 1020,1 hPa 0,0 l/m 5,7 km/h N 12,0 C 18,8 C 15,7 km/h
22.08.2015 10:00 20,0 C 58 % 1019,8 hPa 0,0 l/m 5,0 km/h N 11,3 C 20,0 C 14,1 km/h
22.08.2015 11:00 21,4 C 54 % 1019,2 hPa 0,0 l/m 3,0 km/h N 11,7 C 21,4 C 12,9 km/h
22.08.2015 12:00 22,3 C 49 % 1018,9 hPa 0,0 l/m 4,3 km/h N 11,1 C 22,3 C 12,5 km/h
22.08.2015 13:00 22,8 C 47 % 1018,6 hPa 0,0 l/m 4,2 km/h N 10,9 C 22,8 C 13,7 km/h
22.08.2015 14:00 23,1 C 47 % 1018,3 hPa 0,0 l/m 2,1 km/h N 11,0 C 23,1 C 10,1 km/h
22.08.2015 15:00 23,6 C 45 % 1018,0 hPa 0,0 l/m 2,8 km/h N 10,8 C 23,6 C 10,9 km/h
22.08.2015 16:00 23,1 C 44 % 1017,8 hPa 0,0 l/m 3,3 km/h N 10,1 C 23,1 C 14,1 km/h
22.08.2015 17:00 23,3 C 42 % 1017,3 hPa 0,0 l/m 1,5 km/h N 9,5 C 23,3 C 8,0 km/h
22.08.2015 18:00 23,0 C 43 % 1016,9 hPa 0,0 l/m 0,3 km/h N 9,7 C 23,0 C 4,0 km/h
22.08.2015 19:00 22,5 C 47 % 1017,0 hPa 0,0 l/m 1,0 km/h N 10,5 C 22,5 C 6,4 km/h
22.08.2015 20:00 20,9 C 61 % 1017,1 hPa 0,0 l/m 0,2 km/h N 13,1 C 20,9 C 2,4 km/h
22.08.2015 21:00 19,6 C 68 % 1017,4 hPa 0,0 l/m 0,2 km/h N 13,5 C 19,6 C 4,4 km/h
22.08.2015 22:00 18,8 C 70 % 1017,4 hPa 0,0 l/m 0,1 km/h N 13,3 C 18,8 C 3,2 km/h
22.08.2015 23:00 17,6 C 73 % 1017,1 hPa 0,0 l/m 0,0 km/h N 12,7 C 17,6 C 0,0 km/h
23.08.2015 00:00 15,9 C 77 % 1016,7 hPa 0,0 l/m 0,0 km/h N 11,9 C 15,9 C 0,0 km/h
23.08.2015 01:00 14,8 C 81 % 1016,3 hPa 0,0 l/m 0,0 km/h N 11,5 C 14,8 C 0,8 km/h
23.08.2015 02:00 14,0 C 81 % 1015,8 hPa 0,0 l/m 0,0 km/h N 10,8 C 14,0 C 0,0 km/h
23.08.2015 03:00 13,1 C 83 % 1015,7 hPa 0,0 l/m 0,0 km/h N 10,1 C 13,1 C 0,0 km/h
23.08.2015 04:00 12,0 C 82 % 1015,6 hPa 0,0 l/m 0,0 km/h N 9,0 C 12,0 C 0,0 km/h
23.08.2015 05:00 11,4 C 82 % 1015,5 hPa 0,0 l/m 0,0 km/h N 8,4 C 11,4 C 0,0 km/h
23.08.2015 06:00 11,2 C 82 % 1015,6 hPa 0,0 l/m 0,0 km/h N 8,1 C 11,2 C 0,0 km/h
23.08.2015 07:00 12,5 C 81 % 1015,3 hPa 0,0 l/m 0,0 km/h N 9,2 C 12,5 C 0,8 km/h
23.08.2015 08:00 15,1 C 80 % 1015,4 hPa 0,0 l/m 1,3 km/h N 11,6 C 15,1 C 6,4 km/h
23.08.2015 09:00 16,4 C 81 % 1015,4 hPa 0,0 l/m 3,5 km/h N 13,2 C 16,4 C 12,5 km/h
23.08.2015 10:00 18,7 C 79 % 1014,8 hPa 0,0 l/m 3,7 km/h N 15,0 C 18,7 C 16,5 km/h
23.08.2015 11:00 21,1 C 72 % 1014,2 hPa 0,0 l/m 5,2 km/h N 15,8 C 21,1 C 17,3 km/h
23.08.2015 12:00 21,4 C 68 % 1013,9 hPa 0,0 l/m 5,4 km/h N 15,2 C 21,4 C 17,7 km/h
23.08.2015 13:00 22,7 C 62 % 1013,2 hPa 0,0 l/m 6,7 km/h N 15,1 C 22,6 C 22,5 km/h
23.08.2015 14:00 23,5 C 60 % 1012,8 hPa 0,0 l/m 7,1 km/h N 15,4 C 23,3 C 21,3 km/h
23.08.2015 15:00 24,0 C 57 % 1012,4 hPa 0,0 l/m 7,4 km/h N 15,0 C 23,7 C 22,5 km/h
23.08.2015 16:00 23,6 C 56 % 1011,9 hPa 0,0 l/m 7,4 km/h N 14,3 C 23,4 C 20,1 km/h
23.08.2015 17:00 23,2 C 58 % 1011,7 hPa 0,0 l/m 6,1 km/h N 14,3 C 23,2 C 19,7 km/h
23.08.2015 18:00 22,7 C 60 % 1011,3 hPa 0,0 l/m 6,1 km/h N 14,4 C 22,6 C 19,3 km/h
23.08.2015 19:00 21,9 C 61 % 1011,3 hPa 0,0 l/m 4,8 km/h N 14,1 C 21,9 C 15,7 km/h
23.08.2015 20:00 20,9 C 65 % 1011,3 hPa 0,0 l/m 3,4 km/h N 14,0 C 20,9 C 14,5 km/h
23.08.2015 21:00 20,0 C 69 % 1011,5 hPa 0,0 l/m 2,5 km/h N 14,0 C 20,0 C 10,4 km/h
23.08.2015 22:00 19,3 C 72 % 1011,7 hPa 0,0 l/m 1,5 km/h N 14,0 C 19,3 C 11,7 km/h
23.08.2015 23:00 18,8 C 74 % 1011,7 hPa 0,0 l/m 0,6 km/h N 14,0 C 18,8 C 8,4 km/h
Min-Datum _ 23.08.15 22.08.15 17.08.15 - 18.08.15 - 23.08.15 23.08.15 18.08.15
_ Min-Zeit 06:15 17:00 04:00 - 21:15 - 06:30 06:15 21:30
Minimum _ 11,1 C 41 % 1005,0 hPa - 0,0 km/h - 8,0 C 11,1 C 0,0 km/h
Max-Datum _ 23.08.15 23.08.15 21.08.15 21.08.15 17.08.15 - 23.08.15 23.08.15 17.08.15
_ Max-Zeit 15:30 03:30 09:30 20:15 21:30 - 11:30 15:30 19:00
Maximum _ 24,4 C 84 % 1023,2 hPa 9,9 l/m 14,5 km/h
N
- 16,0 C 24,2 C 41,8 km/h
N
Durchschnitt _ 18,0 C 73 % 1015,7 hPa #49,1 l/m 3,9 km/h N 12,9 C 17,7 C 13,1 km/h